createdAt,value
2019-01-06T00:01:31.276Z,7.30
2019-01-06T00:04:13.425Z,7.30
2019-01-06T00:06:59.746Z,7.30
2019-01-06T00:09:32.377Z,7.30
2019-01-06T00:12:11.431Z,7.40
2019-01-06T00:14:56.749Z,7.40
2019-01-06T00:17:43.280Z,7.30
2019-01-06T00:20:29.721Z,7.30
2019-01-06T00:23:17.874Z,7.30
2019-01-06T00:25:51.886Z,7.30
2019-01-06T00:28:22.244Z,7.30
2019-01-06T00:31:07.370Z,7.30
2019-01-06T00:33:55.815Z,7.40
2019-01-06T00:36:37.755Z,7.40
2019-01-06T00:39:08.363Z,7.40
2019-01-06T00:41:44.469Z,7.40
2019-01-06T00:44:23.316Z,7.40
2019-01-06T00:47:08.305Z,7.40
2019-01-06T00:49:41.089Z,7.30
2019-01-06T00:52:14.341Z,7.30
2019-01-06T00:54:44.528Z,7.30
2019-01-06T00:57:30.835Z,7.30
2019-01-06T01:00:03.845Z,7.30
2019-01-06T01:02:46.162Z,7.30
2019-01-06T01:05:19.456Z,7.30
2019-01-06T01:08:07.649Z,7.20
2019-01-06T01:10:53.970Z,7.20
2019-01-06T01:13:36.519Z,7.10
2019-01-06T01:16:18.526Z,7.10
2019-01-06T01:18:54.464Z,7.10
2019-01-06T01:21:36.532Z,7.00
2019-01-06T01:24:15.751Z,7.10
2019-01-06T01:27:01.757Z,7.10
2019-01-06T01:29:48.177Z,7.10
2019-01-06T01:32:34.660Z,7.20
2019-01-06T01:35:23.029Z,7.20
2019-01-06T01:38:09.586Z,7.20
2019-01-06T01:40:42.553Z,7.20
2019-01-06T01:43:12.868Z,7.20
2019-01-06T01:45:59.573Z,7.20
2019-01-06T01:48:35.488Z,7.10
2019-01-06T01:51:20.730Z,7.10
2019-01-06T01:54:06.913Z,7.10
2019-01-06T01:56:40.192Z,7.20
2019-01-06T01:59:25.122Z,7.20
2019-01-06T02:02:11.397Z,7.20
2019-01-06T02:04:56.483Z,7.20
2019-01-06T02:07:26.874Z,7.10
2019-01-06T02:09:57.220Z,7.10
2019-01-06T02:12:30.220Z,7.10
2019-01-06T02:15:09.186Z,7.10
2019-01-06T02:17:42.275Z,7.10
2019-01-06T02:20:28.692Z,7.20
2019-01-06T02:23:07.924Z,7.20
2019-01-06T02:25:38.125Z,7.10
2019-01-06T02:28:08.372Z,7.10
2019-01-06T02:30:41.273Z,7.10
2019-01-06T02:33:17.092Z,7.10
2019-01-06T02:36:03.374Z,7.10
2019-01-06T02:38:36.521Z,7.10
2019-01-06T02:41:12.498Z,7.10
2019-01-06T02:43:51.577Z,7.10
2019-01-06T02:46:24.421Z,7.00
2019-01-06T02:48:57.442Z,7.00
2019-01-06T02:51:30.653Z,7.00
2019-01-06T02:54:12.857Z,7.00
2019-01-06T02:56:46.138Z,7.00
2019-01-06T02:59:32.504Z,7.00
2019-01-06T03:02:11.845Z,7.00
2019-01-06T03:04:42.054Z,7.00
2019-01-06T03:07:29.928Z,7.00
2019-01-06T03:10:00.251Z,7.00
2019-01-06T03:12:42.391Z,7.00
2019-01-06T03:15:18.330Z,7.00
2019-01-06T03:18:04.696Z,7.00
2019-01-06T03:20:40.613Z,7.00
2019-01-06T03:23:27.006Z,7.00
2019-01-06T03:26:02.828Z,7.00
2019-01-06T03:28:35.614Z,7.00
2019-01-06T03:31:21.826Z,7.00
2019-01-06T03:33:52.040Z,7.00
2019-01-06T03:36:38.148Z,7.10
2019-01-06T03:39:11.234Z,7.00
2019-01-06T03:41:41.428Z,7.10
2019-01-06T03:44:23.692Z,7.10
2019-01-06T03:46:53.893Z,7.00
2019-01-06T03:49:24.104Z,7.10
2019-01-06T03:51:54.336Z,7.10
2019-01-06T03:54:27.402Z,7.10
2019-01-06T03:57:00.152Z,7.10
2019-01-06T03:59:46.072Z,7.10
2019-01-06T04:02:28.121Z,7.10
2019-01-06T04:05:07.192Z,7.10
2019-01-06T04:07:46.261Z,7.10
2019-01-06T04:10:22.463Z,7.10
2019-01-06T04:12:58.470Z,7.10
2019-01-06T04:15:45.067Z,7.00
2019-01-06T04:18:33.346Z,7.00
2019-01-06T04:21:09.156Z,7.00
2019-01-06T04:23:39.369Z,7.00
2019-01-06T04:26:27.844Z,7.00
2019-01-06T04:28:58.048Z,7.00
2019-01-06T04:31:34.062Z,7.10
2019-01-06T04:34:09.734Z,7.00
2019-01-06T04:36:42.720Z,7.00
2019-01-06T04:39:15.330Z,7.00
2019-01-06T04:42:01.568Z,6.90
2019-01-06T04:44:34.716Z,6.90
2019-01-06T04:47:10.781Z,6.90
2019-01-06T04:49:57.066Z,6.90
2019-01-06T04:52:30.417Z,6.90
2019-01-06T04:55:00.611Z,6.90
2019-01-06T04:57:36.541Z,6.90
2019-01-06T05:00:23.460Z,6.90
2019-01-06T05:03:05.338Z,6.90
2019-01-06T05:05:44.001Z,6.80
2019-01-06T05:08:14.264Z,6.80
2019-01-06T05:10:50.326Z,6.80
2019-01-06T05:13:23.057Z,6.80
2019-01-06T05:16:04.972Z,6.80
2019-01-06T05:18:43.989Z,6.80
2019-01-06T05:21:14.188Z,6.80
2019-01-06T05:23:56.042Z,6.80
2019-01-06T05:26:42.508Z,6.80
2019-01-06T05:29:18.330Z,6.80
2019-01-06T05:31:51.317Z,6.80
2019-01-06T05:34:27.672Z,6.80
2019-01-06T05:36:57.918Z,6.80
2019-01-06T05:39:28.159Z,6.80
2019-01-06T05:42:04.121Z,6.80
2019-01-06T05:44:34.329Z,6.80
2019-01-06T05:47:04.634Z,6.80
2019-01-06T05:49:34.841Z,6.80
2019-01-06T05:52:22.840Z,6.80
2019-01-06T05:55:09.076Z,6.80
2019-01-06T05:57:39.322Z,6.90
2019-01-06T06:00:18.700Z,6.90
2019-01-06T06:02:55.043Z,7.00
2019-01-06T06:05:28.924Z,7.00
2019-01-06T06:08:15.132Z,6.90
2019-01-06T06:10:45.334Z,6.90
2019-01-06T06:13:18.135Z,6.90
2019-01-06T06:15:57.151Z,6.90
2019-01-06T06:18:43.128Z,6.90
2019-01-06T06:21:28.261Z,6.90
2019-01-06T06:24:14.272Z,6.90
2019-01-06T06:26:47.140Z,6.90
2019-01-06T06:29:19.881Z,6.90
2019-01-06T06:32:01.943Z,6.90
2019-01-06T06:34:38.062Z,6.90
2019-01-06T06:37:14.170Z,6.80
2019-01-06T06:39:59.644Z,6.80
2019-01-06T06:42:29.840Z,6.80
2019-01-06T06:45:17.790Z,6.80
2019-01-06T06:47:53.937Z,6.80
2019-01-06T06:50:26.795Z,6.80
2019-01-06T06:52:57.164Z,6.80
2019-01-06T06:55:38.778Z,6.80
2019-01-06T06:58:19.900Z,6.70
2019-01-06T07:01:12.576Z,6.70
2019-01-06T07:03:47.609Z,6.80
2019-01-06T07:06:34.064Z,6.80
2019-01-06T07:09:07.053Z,6.80
2019-01-06T07:11:40.061Z,6.70
2019-01-06T07:14:10.269Z,6.80
2019-01-06T07:17:16.150Z,6.70
2019-01-06T07:19:51.810Z,6.70
2019-01-06T07:22:38.220Z,6.70
2019-01-06T07:25:26.278Z,6.70
2019-01-06T07:28:12.445Z,6.70
2019-01-06T07:30:48.821Z,6.70
2019-01-06T07:33:24.888Z,6.70
2019-01-06T07:36:03.902Z,6.70
2019-01-06T07:38:34.112Z,6.70
2019-01-06T07:41:13.889Z,6.70
2019-01-06T07:44:00.271Z,6.70
2019-01-06T07:46:36.429Z,6.70
2019-01-06T07:49:21.563Z,6.70
2019-01-06T07:52:00.952Z,6.70
2019-01-06T07:54:47.353Z,6.60
2019-01-06T07:57:26.356Z,6.70
2019-01-06T08:00:15.170Z,6.70
2019-01-06T08:02:41.509Z,6.70
2019-01-06T08:05:27.852Z,6.70
2019-01-06T08:08:07.085Z,6.70
2019-01-06T08:10:43.104Z,6.70
2019-01-06T08:13:13.301Z,6.70
2019-01-06T08:15:49.305Z,6.70
2019-01-06T08:18:31.326Z,6.70
2019-01-06T08:21:17.604Z,6.70
2019-01-06T08:23:50.507Z,6.70
2019-01-06T08:26:20.700Z,6.70
2019-01-06T08:28:59.804Z,6.70
2019-01-06T08:31:41.869Z,6.70
2019-01-06T08:34:28.253Z,6.70
2019-01-06T08:37:13.106Z,6.70
2019-01-06T08:39:49.383Z,6.70
2019-01-06T08:42:25.356Z,6.70
2019-01-06T08:44:55.562Z,6.70
2019-01-06T08:47:28.474Z,6.70
2019-01-06T08:50:01.112Z,6.70
2019-01-06T08:52:33.752Z,6.60
2019-01-06T08:55:12.564Z,6.70
2019-01-06T08:57:54.613Z,6.70
2019-01-06T09:00:27.328Z,6.70
2019-01-06T09:03:14.668Z,6.70
2019-01-06T09:05:53.741Z,6.80
2019-01-06T09:08:39.829Z,6.90
2019-01-06T09:11:10.077Z,6.90
2019-01-06T09:13:56.681Z,6.90
2019-01-06T09:16:42.997Z,6.90
2019-01-06T09:19:13.212Z,6.90
2019-01-06T09:21:59.356Z,6.90
2019-01-06T09:24:32.509Z,7.00
2019-01-06T09:27:08.426Z,7.00
2019-01-06T09:29:54.957Z,6.90
2019-01-06T09:32:39.780Z,6.90
2019-01-06T09:35:18.714Z,6.80
2019-01-06T09:38:04.638Z,6.80
2019-01-06T09:40:40.748Z,6.80
2019-01-06T09:43:13.822Z,6.70
2019-01-06T09:45:50.016Z,6.80
2019-01-06T09:48:34.809Z,6.80
2019-01-06T09:51:10.755Z,6.90
2019-01-06T09:53:40.949Z,6.90
2019-01-06T09:56:11.197Z,6.90
2019-01-06T09:58:57.622Z,6.90
2019-01-06T10:01:33.572Z,6.90
2019-01-06T10:04:19.647Z,7.00
2019-01-06T10:07:05.603Z,6.90
2019-01-06T10:09:35.803Z,6.90
2019-01-06T10:12:06.007Z,6.90
2019-01-06T10:14:36.247Z,6.90
2019-01-06T10:17:22.241Z,7.00
2019-01-06T10:19:52.495Z,7.00
2019-01-06T10:22:25.376Z,7.00
2019-01-06T10:24:55.752Z,7.10
2019-01-06T10:27:34.893Z,7.20
2019-01-06T10:30:06.628Z,7.10
2019-01-06T10:32:36.824Z,7.10
2019-01-06T10:35:16.094Z,7.10
2019-01-06T10:37:52.069Z,7.10
2019-01-06T10:40:38.401Z,7.10
2019-01-06T10:43:24.900Z,7.10
2019-01-06T10:46:04.040Z,7.10
2019-01-06T10:48:34.247Z,7.10
2019-01-06T10:51:22.571Z,7.20
2019-01-06T10:53:52.780Z,7.30
2019-01-06T10:56:31.586Z,7.10
2019-01-06T10:59:02.045Z,7.20
2019-01-06T11:01:44.013Z,7.10
2019-01-06T11:04:30.286Z,7.10
2019-01-06T11:07:03.053Z,7.20
2019-01-06T11:09:33.261Z,7.10
2019-01-06T11:12:19.427Z,7.10
2019-01-06T11:14:52.661Z,7.10
2019-01-06T11:17:37.848Z,7.10
2019-01-06T11:20:26.167Z,7.10
2019-01-06T11:23:12.573Z,7.10
2019-01-06T11:25:45.651Z,7.10
2019-01-06T11:28:15.845Z,7.10
2019-01-06T11:30:51.895Z,7.10
2019-01-06T11:33:30.916Z,7.00
2019-01-06T11:36:17.220Z,7.10
2019-01-06T11:38:50.000Z,7.00
2019-01-06T11:41:20.249Z,7.00
2019-01-06T11:43:50.447Z,7.00
2019-01-06T11:46:36.982Z,7.00
2019-01-06T11:49:07.190Z,7.00
2019-01-06T11:51:52.620Z,7.00
2019-01-06T11:54:40.809Z,7.00
2019-01-06T11:57:28.830Z,7.00
2019-01-06T12:00:08.250Z,7.10
2019-01-06T12:02:39.177Z,7.00
2019-01-06T12:05:26.050Z,7.10
2019-01-06T12:08:08.252Z,7.10
2019-01-06T12:10:50.029Z,7.10
2019-01-06T12:13:36.376Z,7.10
2019-01-06T12:16:12.653Z,7.20
2019-01-06T12:18:51.364Z,7.20
2019-01-06T12:21:24.460Z,7.20
2019-01-06T12:24:06.553Z,7.20
2019-01-06T12:26:39.786Z,7.20
2019-01-06T12:29:26.283Z,7.20
2019-01-06T12:32:12.293Z,7.20
2019-01-06T12:35:00.253Z,7.20
2019-01-06T12:37:39.336Z,7.20
2019-01-06T12:40:25.538Z,7.20
2019-01-06T12:43:04.356Z,7.20
2019-01-06T12:45:40.545Z,7.20
2019-01-06T12:48:19.887Z,7.20
2019-01-06T12:50:53.168Z,7.30
2019-01-06T12:53:40.573Z,7.30
2019-01-06T12:56:27.189Z,7.30
2019-01-06T12:59:13.111Z,7.30
2019-01-06T13:01:55.135Z,7.30
2019-01-06T13:04:41.648Z,7.20
2019-01-06T13:07:14.570Z,7.20
2019-01-06T13:10:00.741Z,7.20
2019-01-06T13:12:47.052Z,7.30
2019-01-06T13:15:23.323Z,7.20
2019-01-06T13:17:53.535Z,7.30
2019-01-06T13:20:35.359Z,7.20
2019-01-06T13:23:08.327Z,7.30
2019-01-06T13:25:54.437Z,7.30
2019-01-06T13:28:33.601Z,7.30
2019-01-06T13:31:03.803Z,7.30
2019-01-06T13:33:45.541Z,7.40
2019-01-06T13:36:24.561Z,7.30
2019-01-06T13:38:57.476Z,7.30
2019-01-06T13:41:27.677Z,7.30
2019-01-06T13:44:12.797Z,7.30
2019-01-06T13:46:48.696Z,7.30
2019-01-06T13:49:30.796Z,7.30
2019-01-06T13:52:12.768Z,7.30
2019-01-06T13:54:51.678Z,7.30
2019-01-06T13:57:21.873Z,7.40
2019-01-06T13:59:54.909Z,7.40
2019-01-06T14:02:25.137Z,7.40
2019-01-06T14:05:11.436Z,7.50
2019-01-06T14:08:00.674Z,7.40
2019-01-06T14:10:36.741Z,7.40
2019-01-06T14:13:15.653Z,7.40
2019-01-06T14:15:57.617Z,7.50
2019-01-06T14:18:36.524Z,7.40
2019-01-06T14:21:22.762Z,7.40
2019-01-06T14:24:01.910Z,7.40
2019-01-06T14:26:43.958Z,7.40
2019-01-06T14:29:29.195Z,7.40
2019-01-06T14:32:15.676Z,7.40
2019-01-06T14:34:45.924Z,7.40
2019-01-06T14:37:24.878Z,7.40
2019-01-06T14:40:11.432Z,7.50
2019-01-06T14:42:44.180Z,7.60
2019-01-06T14:45:20.339Z,7.60
2019-01-06T14:48:05.296Z,7.60
2019-01-06T14:50:51.488Z,7.50
2019-01-06T14:53:33.653Z,7.50
2019-01-06T14:56:22.624Z,7.40
2019-01-06T14:58:52.893Z,7.40
2019-01-06T15:01:23.094Z,7.40
2019-01-06T15:04:08.310Z,7.40
2019-01-06T15:06:47.602Z,7.50
2019-01-06T15:09:17.813Z,7.50
2019-01-06T15:12:03.821Z,7.50
2019-01-06T15:14:37.573Z,7.60
2019-01-06T15:17:11.218Z,7.60
2019-01-06T15:19:56.580Z,7.60
2019-01-06T15:22:44.817Z,7.60
2019-01-06T15:25:15.138Z,7.60
2019-01-06T15:28:01.303Z,7.60
2019-01-06T15:30:47.858Z,7.50
2019-01-06T15:33:23.639Z,7.60
2019-01-06T15:36:11.702Z,7.50
2019-01-06T15:38:41.904Z,7.50
2019-01-06T15:41:12.105Z,7.50
2019-01-06T15:43:54.197Z,7.40
2019-01-06T15:46:33.099Z,7.50
2019-01-06T15:49:18.021Z,7.50
2019-01-06T15:51:54.258Z,7.50
2019-01-06T15:54:39.080Z,7.50
2019-01-06T15:57:27.432Z,7.50
2019-01-06T15:59:57.681Z,7.80
2019-01-06T16:02:30.802Z,8.00
2019-01-06T16:05:03.758Z,7.90
2019-01-06T16:07:49.940Z,7.80
2019-01-06T16:10:36.278Z,7.70
2019-01-06T16:13:22.679Z,7.60
2019-01-06T16:16:01.813Z,7.60
2019-01-06T16:18:34.488Z,7.50
2019-01-06T16:21:11.137Z,7.50
2019-01-06T16:23:57.294Z,7.50
2019-01-06T16:26:30.096Z,7.50
2019-01-06T16:29:16.347Z,7.40
2019-01-06T16:31:46.628Z,7.40
2019-01-06T16:34:16.877Z,7.40
2019-01-06T16:36:47.093Z,7.40
2019-01-06T16:39:26.409Z,7.30
2019-01-06T16:42:08.469Z,7.30
2019-01-06T16:44:55.054Z,7.30
2019-01-06T16:47:25.235Z,7.40
2019-01-06T16:50:13.154Z,7.30
2019-01-06T16:52:55.093Z,7.30
2019-01-06T16:55:40.104Z,7.30
2019-01-06T16:58:10.442Z,7.60
2019-01-06T17:00:46.353Z,7.80
2019-01-06T17:03:34.577Z,7.80
2019-01-06T17:06:07.624Z,7.70
2019-01-06T17:08:43.817Z,7.60
2019-01-06T17:11:30.285Z,7.50
2019-01-06T17:14:00.540Z,7.50
2019-01-06T17:16:42.328Z,7.50
2019-01-06T17:19:15.538Z,7.50
2019-01-06T17:22:00.768Z,7.40
2019-01-06T17:24:33.833Z,7.40
2019-01-06T17:27:04.037Z,7.40
2019-01-06T17:29:46.102Z,7.40
2019-01-06T17:32:30.906Z,7.40
2019-01-06T17:35:06.805Z,7.40
2019-01-06T17:37:53.938Z,7.30
2019-01-06T17:40:32.806Z,7.30
2019-01-06T17:43:05.424Z,7.30
2019-01-06T17:45:51.667Z,7.30
2019-01-06T17:48:37.725Z,7.30
2019-01-06T17:51:22.822Z,7.30
2019-01-06T17:54:11.203Z,7.30
2019-01-06T17:56:44.013Z,7.30
2019-01-06T17:59:16.788Z,7.30
2019-01-06T18:01:55.969Z,7.30
2019-01-06T18:04:38.105Z,7.30
2019-01-06T18:07:24.512Z,7.30
2019-01-06T18:10:10.704Z,7.30
2019-01-06T18:12:52.979Z,7.20
2019-01-06T18:15:41.224Z,7.20
2019-01-06T18:18:11.461Z,7.30
2019-01-06T18:20:57.440Z,7.30
2019-01-06T18:23:44.026Z,7.30
2019-01-06T18:26:14.217Z,7.20
2019-01-06T18:28:47.213Z,7.30
2019-01-06T18:31:17.661Z,7.30
2019-01-06T18:34:05.922Z,7.30
2019-01-06T18:36:36.272Z,7.20
2019-01-06T18:39:14.000Z,7.20
2019-01-06T18:41:46.768Z,7.20
2019-01-06T18:44:33.342Z,7.20
2019-01-06T18:47:06.428Z,7.20
2019-01-06T18:49:52.838Z,7.20
2019-01-06T18:52:26.040Z,7.20
2019-01-06T18:54:59.180Z,7.20
2019-01-06T18:57:38.241Z,7.20
2019-01-06T19:00:09.989Z,7.20
2019-01-06T19:02:55.351Z,7.20
2019-01-06T19:05:41.777Z,7.20
2019-01-06T19:08:23.836Z,7.20
2019-01-06T19:11:08.993Z,7.20
2019-01-06T19:13:53.766Z,7.20
2019-01-06T19:16:23.970Z,7.20
2019-01-06T19:19:06.180Z,7.20
2019-01-06T19:21:41.958Z,7.50
2019-01-06T19:24:18.351Z,7.90
2019-01-06T19:27:00.433Z,8.20
2019-01-06T19:29:46.719Z,8.30
2019-01-06T19:32:32.849Z,8.40
2019-01-06T19:35:03.089Z,8.50
2019-01-06T19:37:39.077Z,8.60
2019-01-06T19:40:25.860Z,8.70
2019-01-06T19:42:58.956Z,8.70
2019-01-06T19:45:37.857Z,8.80
2019-01-06T19:48:08.118Z,8.80
2019-01-06T19:50:46.798Z,8.80
2019-01-06T19:53:16.997Z,8.60
2019-01-06T19:56:03.370Z,8.30
2019-01-06T19:58:39.113Z,8.10
2019-01-06T20:01:09.309Z,8.00
2019-01-06T20:03:56.943Z,7.80
2019-01-06T20:06:36.074Z,7.70
2019-01-06T20:09:08.281Z,7.60
2019-01-06T20:11:41.473Z,7.50
2019-01-06T20:14:26.513Z,7.50
2019-01-06T20:16:59.716Z,7.40
2019-01-06T20:19:45.870Z,7.40
2019-01-06T20:22:32.453Z,7.40
2019-01-06T20:25:14.288Z,7.40
2019-01-06T20:27:50.322Z,7.30
2019-01-06T20:30:36.608Z,7.30
2019-01-06T20:33:21.738Z,7.30
2019-01-06T20:35:52.113Z,7.30
2019-01-06T20:38:28.020Z,7.30
2019-01-06T20:41:14.616Z,7.30
2019-01-06T20:43:44.808Z,7.30
2019-01-06T20:46:30.096Z,7.30
2019-01-06T20:49:16.533Z,7.40
2019-01-06T20:51:46.788Z,7.30
2019-01-06T20:54:19.749Z,7.30
2019-01-06T20:56:55.705Z,7.30
2019-01-06T20:59:28.752Z,7.30
2019-01-06T21:02:15.004Z,7.30
2019-01-06T21:04:47.734Z,7.30
2019-01-06T21:07:26.616Z,7.30
2019-01-06T21:10:05.880Z,7.30
2019-01-06T21:12:52.341Z,7.30
2019-01-06T21:15:38.745Z,7.30
2019-01-06T21:18:11.754Z,7.30
2019-01-06T21:20:58.072Z,7.30
2019-01-06T21:23:28.288Z,7.30
2019-01-06T21:26:07.072Z,7.30
2019-01-06T21:28:46.111Z,7.20
2019-01-06T21:31:34.025Z,7.20
2019-01-06T21:34:06.688Z,7.30
2019-01-06T21:36:53.070Z,7.30
2019-01-06T21:39:34.865Z,7.30
2019-01-06T21:42:21.125Z,7.30
2019-01-06T21:45:00.225Z,7.20
2019-01-06T21:47:46.823Z,7.20
2019-01-06T21:50:17.050Z,7.20
2019-01-06T21:52:56.118Z,7.20
2019-01-06T21:55:29.109Z,7.20
2019-01-06T21:58:15.262Z,7.20
2019-01-06T22:00:57.640Z,7.20
2019-01-06T22:03:42.682Z,7.20
2019-01-06T22:06:28.705Z,7.20
2019-01-06T22:08:59.034Z,7.20
2019-01-06T22:11:29.236Z,7.10
2019-01-06T22:14:02.004Z,7.10
2019-01-06T22:16:47.281Z,7.10
2019-01-06T22:19:32.412Z,7.10
2019-01-06T22:22:18.468Z,7.10
2019-01-06T22:24:54.208Z,7.10
2019-01-06T22:27:33.247Z,7.10
2019-01-06T22:30:09.452Z,7.10
2019-01-06T22:32:55.737Z,7.10
2019-01-06T22:35:31.964Z,7.10
2019-01-06T22:38:14.077Z,7.10
2019-01-06T22:40:59.231Z,7.00
2019-01-06T22:43:41.304Z,7.00
2019-01-06T22:46:11.511Z,7.00
2019-01-06T22:48:41.709Z,7.00
2019-01-06T22:51:11.953Z,7.00
2019-01-06T22:53:58.040Z,7.00
2019-01-06T22:56:31.072Z,7.10
2019-01-06T22:59:03.824Z,7.00
2019-01-06T23:01:36.644Z,7.10
2019-01-06T23:04:21.708Z,7.10
2019-01-06T23:07:09.677Z,7.10
2019-01-06T23:09:42.497Z,7.10
2019-01-06T23:12:24.317Z,7.10
2019-01-06T23:14:54.544Z,7.10
2019-01-06T23:17:40.977Z,7.10
2019-01-06T23:20:11.221Z,7.00
2019-01-06T23:22:41.420Z,7.10
2019-01-06T23:25:20.505Z,7.00
2019-01-06T23:27:56.533Z,7.10
2019-01-06T23:30:32.616Z,7.00
2019-01-06T23:33:20.621Z,7.20
2019-01-06T23:35:53.581Z,7.00
2019-01-06T23:38:23.785Z,7.00
2019-01-06T23:41:02.793Z,7.00
2019-01-06T23:43:32.992Z,7.00
2019-01-06T23:46:11.787Z,7.00
2019-01-06T23:48:58.060Z,7.00
2019-01-06T23:51:28.257Z,7.00
2019-01-06T23:54:01.165Z,7.10
2019-01-06T23:56:47.541Z,7.00
2019-01-06T23:59:24.269Z,7.10
